Time;durP1;ratioP1;P1;durP2;ratioP2;P2;SDS_P1;SDS_P2;PMS_P1;PMS_P2;Temp;Humidity;BMP_temperature;BMP_pressure;BME280_temperature;BME280_humidity;BME280_pressure;Samples;Min_cycle;Max_cycle;Signal;HPM_P1;HPM_P2
2022/10/28 00:00:10;;;;;;;;;;;17.50;99.90;;;;;;5047407;28;20019;-69
2022/10/28 00:02:39;;;;;;;;;;;17.50;99.90;;;;;;5033320;28;19932;-69
2022/10/28 00:05:06;;;;;;;;;;;17.40;99.90;;;;;;5033037;28;19925;-69
2022/10/28 00:07:33;;;;;;;;;;;17.40;99.90;;;;;;5033063;28;19925;-69
2022/10/28 00:09:59;;;;;;;;;;;17.40;99.90;;;;;;5032893;28;19961;-70
2022/10/28 00:12:26;;;;;;;;;;;17.30;99.90;;;;;;5033467;28;19991;-69
2022/10/28 00:14:53;;;;;;;;;;;17.30;99.90;;;;;;5032553;28;20008;-69
2022/10/28 00:17:21;;;;;;;;;;;17.30;99.90;;;;;;5033029;28;20297;-70
2022/10/28 00:19:47;;;;;;;;;;;17.30;99.90;;;;;;5032863;28;19931;-70
2022/10/28 00:22:14;;;;;;;;;;;17.30;99.90;;;;;;5032136;28;20350;-70
2022/10/28 00:24:41;;;;;;;;;;;17.20;99.90;;;;;;5032695;28;19925;-69
2022/10/28 00:27:07;;;;;;;;;;;17.10;99.90;;;;;;5032873;28;19932;-70
2022/10/28 00:29:34;;;;;;;;;;;17.10;99.90;;;;;;5032669;28;19932;-69
2022/10/28 00:32:00;;;;;;;;;;;17.10;99.90;;;;;;5032919;28;19925;-69
2022/10/28 00:34:28;;;;;;;;;;;17.10;99.90;;;;;;5032785;28;20019;-69
2022/10/28 00:36:55;;;;;;;;;;;17.10;99.90;;;;;;5032079;28;19925;-70
2022/10/28 00:39:23;;;;;;;;;;;17.10;99.90;;;;;;5051542;28;19947;-70
2022/10/28 00:41:50;;;;;;;;;;;17.10;99.90;;;;;;5052291;28;19925;-70
2022/10/28 00:44:36;;;;;;;;;;;17.20;99.90;;;;;;5052784;28;20003;-70
2022/10/28 00:47:03;;;;;;;;;;;17.30;99.90;;;;;;5052381;28;19929;-70
2022/10/28 00:49:33;;;;;;;;;;;17.30;99.90;;;;;;5052596;28;19931;-70
2022/10/28 00:52:02;;;;;;;;;;;17.30;99.90;;;;;;5042181;28;19931;-69
2022/10/28 00:54:29;;;;;;;;;;;17.20;99.90;;;;;;5036954;28;19931;-69
2022/10/28 00:56:57;;;;;;;;;;;17.30;99.90;;;;;;5044253;28;19925;-69
2022/10/28 00:59:25;;;;;;;;;;;17.20;99.90;;;;;;5056191;28;20294;-69
2022/10/28 01:01:52;;;;;;;;;;;17.20;99.90;;;;;;5056432;28;19931;-69
2022/10/28 01:04:19;;;;;;;;;;;17.20;99.90;;;;;;5056432;28;19925;-70
2022/10/28 01:06:47;;;;;;;;;;;17.20;99.90;;;;;;5056541;28;19931;-70
2022/10/28 01:09:14;;;;;;;;;;;17.20;99.90;;;;;;5056665;28;19924;-70
2022/10/28 01:11:53;;;;;;;;;;;17.20;99.90;;;;;;5056391;28;19931;-70
2022/10/28 01:14:39;;;;;;;;;;;17.20;99.90;;;;;;5056482;28;20016;-69
2022/10/28 01:17:15;;;;;;;;;;;17.20;99.90;;;;;;5044385;28;20303;-69
2022/10/28 01:20:03;;;;;;;;;;;17.20;99.90;;;;;;5035942;28;19925;-70
2022/10/28 01:22:33;;;;;;;;;;;17.10;99.90;;;;;;5035791;28;19931;-70
2022/10/28 01:25:18;;;;;;;;;;;17.10;99.90;;;;;;5036223;28;19929;-70
2022/10/28 01:27:59;;;;;;;;;;;17.10;99.90;;;;;;5036256;28;19925;-70
2022/10/28 01:30:27;;;;;;;;;;;17.10;99.90;;;;;;5054029;28;19925;-70
2022/10/28 01:33:01;;;;;;;;;;;17.20;99.90;;;;;;5055688;28;20631;-69
2022/10/28 01:35:30;;;;;;;;;;;17.20;99.90;;;;;;5055362;28;19933;-69
2022/10/28 01:38:17;;;;;;;;;;;17.30;99.90;;;;;;5016137;28;19925;-70
2022/10/28 01:40:47;;;;;;;;;;;17.30;99.90;;;;;;5018959;28;19936;-69
2022/10/28 01:43:15;;;;;;;;;;;17.30;99.90;;;;;;5035675;28;20494;-71
2022/10/28 01:45:47;;;;;;;;;;;17.30;99.90;;;;;;5035550;28;19972;-69
2022/10/28 01:48:18;;;;;;;;;;;17.30;99.90;;;;;;5035465;28;19925;-69
2022/10/28 01:50:46;;;;;;;;;;;17.30;99.90;;;;;;5035805;28;20015;-69
2022/10/28 01:53:14;;;;;;;;;;;17.20;99.90;;;;;;5035606;28;19929;-69
2022/10/28 01:55:43;;;;;;;;;;;17.20;99.90;;;;;;5038912;28;19979;-70
2022/10/28 01:58:12;;;;;;;;;;;17.20;99.90;;;;;;5055239;28;19924;-69
2022/10/28 02:00:39;;;;;;;;;;;17.20;99.90;;;;;;5053229;28;19925;-69
2022/10/28 02:03:06;;;;;;;;;;;17.10;99.90;;;;;;5035334;28;19925;-69
2022/10/28 02:05:37;;;;;;;;;;;17.10;99.90;;;;;;5035434;28;19925;-69
2022/10/28 02:08:09;;;;;;;;;;;17.10;99.90;;;;;;5035535;28;20031;-68
2022/10/28 02:10:39;;;;;;;;;;;17.00;99.90;;;;;;5035145;28;19949;-68
2022/10/28 02:13:10;;;;;;;;;;;17.00;99.90;;;;;;5035548;28;19937;-69
2022/10/28 02:15:40;;;;;;;;;;;16.90;99.90;;;;;;5037523;28;20390;-69
2022/10/28 02:18:13;;;;;;;;;;;16.90;99.90;;;;;;5046139;28;19925;-69
2022/10/28 02:20:45;;;;;;;;;;;16.90;99.90;;;;;;5035318;28;19972;-69
2022/10/28 02:23:17;;;;;;;;;;;17.00;99.90;;;;;;5035646;28;19925;-69
2022/10/28 02:25:46;;;;;;;;;;;16.90;99.90;;;;;;5034626;28;20007;-69
2022/10/28 02:28:15;;;;;;;;;;;17.00;99.90;;;;;;5034706;28;20296;-69
2022/10/28 02:30:45;;;;;;;;;;;17.00;99.90;;;;;;5034897;28;19925;-69
2022/10/28 02:33:14;;;;;;;;;;;17.10;99.90;;;;;;5034495;28;19925;-68
2022/10/28 02:35:45;;;;;;;;;;;17.10;99.90;;;;;;5034454;28;19925;-68
2022/10/28 02:38:15;;;;;;;;;;;17.10;99.90;;;;;;5041076;28;19925;-69
2022/10/28 02:40:43;;;;;;;;;;;17.10;99.90;;;;;;5054180;28;19931;-68
2022/10/28 02:43:13;;;;;;;;;;;17.00;99.90;;;;;;5054629;28;19925;-69
2022/10/28 02:45:40;;;;;;;;;;;17.00;99.90;;;;;;5051597;28;20031;-68
2022/10/28 02:48:09;;;;;;;;;;;17.00;99.90;;;;;;5034405;28;19933;-69
2022/10/28 02:50:36;;;;;;;;;;;17.00;99.90;;;;;;5034521;28;19948;-69
2022/10/28 02:53:08;;;;;;;;;;;16.90;99.90;;;;;;5034897;28;19931;-69
2022/10/28 02:55:37;;;;;;;;;;;16.90;99.90;;;;;;5034432;28;20387;-69
2022/10/28 02:58:05;;;;;;;;;;;16.90;99.90;;;;;;5034401;28;20387;-69
2022/10/28 03:00:31;;;;;;;;;;;16.90;99.90;;;;;;5043776;28;20011;-69
2022/10/28 03:02:58;;;;;;;;;;;16.90;99.90;;;;;;5054378;28;19925;-69
2022/10/28 03:05:25;;;;;;;;;;;16.90;99.90;;;;;;5054517;28;19946;-69
2022/10/28 03:07:51;;;;;;;;;;;17.00;99.90;;;;;;5049577;28;19925;-69
2022/10/28 03:10:19;;;;;;;;;;;16.90;99.90;;;;;;5034091;28;19931;-69
2022/10/28 03:12:46;;;;;;;;;;;16.90;99.90;;;;;;5034175;28;19925;-69
2022/10/28 03:15:13;;;;;;;;;;;16.90;99.90;;;;;;5034274;28;20027;-68
2022/10/28 03:17:39;;;;;;;;;;;16.90;99.90;;;;;;5034045;28;19935;-69
2022/10/28 03:20:06;;;;;;;;;;;16.90;99.90;;;;;;5034012;28;19932;-69
2022/10/28 03:22:33;;;;;;;;;;;17.00;99.90;;;;;;5034011;28;19947;-69
2022/10/28 03:25:00;;;;;;;;;;;17.00;99.90;;;;;;5033600;28;20032;-69
2022/10/28 03:27:28;;;;;;;;;;;16.90;99.90;;;;;;5034026;28;20032;-69
2022/10/28 03:29:55;;;;;;;;;;;17.00;99.90;;;;;;5034406;28;19931;-69
2022/10/28 03:32:21;;;;;;;;;;;16.90;99.90;;;;;;5033593;28;20027;-69
2022/10/28 03:34:48;;;;;;;;;;;16.80;99.90;;;;;;5033564;28;19925;-69
2022/10/28 03:37:14;;;;;;;;;;;16.80;99.90;;;;;;5033202;28;19931;-69
2022/10/28 03:39:41;;;;;;;;;;;16.80;99.90;;;;;;5033707;28;20019;-69
2022/10/28 03:42:08;;;;;;;;;;;16.80;99.90;;;;;;5034011;28;20358;-69
2022/10/28 03:44:36;;;;;;;;;;;16.80;99.90;;;;;;5033538;28;19960;-69
2022/10/28 03:47:02;;;;;;;;;;;16.80;99.90;;;;;;5033304;28;19925;-69
2022/10/28 03:49:29;;;;;;;;;;;16.70;99.90;;;;;;5033201;28;19928;-69
2022/10/28 03:51:56;;;;;;;;;;;16.70;99.90;;;;;;5033481;28;19931;-68
2022/10/28 03:54:22;;;;;;;;;;;16.70;99.90;;;;;;5034371;28;19931;-69
2022/10/28 03:56:49;;;;;;;;;;;16.70;99.90;;;;;;5033333;28;20023;-69
2022/10/28 03:59:15;;;;;;;;;;;16.70;99.90;;;;;;5033239;28;20036;-69
2022/10/28 04:01:43;;;;;;;;;;;16.70;99.90;;;;;;5033149;28;19925;-69
2022/10/28 04:04:10;;;;;;;;;;;16.70;99.90;;;;;;5033036;28;19931;-70
2022/10/28 04:06:37;;;;;;;;;;;16.60;99.90;;;;;;5032802;28;20299;-69
2022/10/28 04:09:03;;;;;;;;;;;16.60;99.90;;;;;;5032376;28;19968;-69
2022/10/28 04:11:30;;;;;;;;;;;16.50;99.90;;;;;;5033120;28;20376;-69
2022/10/28 04:13:57;;;;;;;;;;;16.50;99.90;;;;;;5033297;28;19925;-69
2022/10/28 04:16:23;;;;;;;;;;;16.50;99.90;;;;;;5045920;28;20391;-68
2022/10/28 04:18:51;;;;;;;;;;;16.50;99.90;;;;;;5052721;28;19925;-69
2022/10/28 04:21:18;;;;;;;;;;;16.50;99.90;;;;;;5049317;28;19933;-69
2022/10/28 04:23:45;;;;;;;;;;;16.40;99.90;;;;;;5034192;28;20039;-70
2022/10/28 04:26:11;;;;;;;;;;;16.40;99.90;;;;;;5040291;28;19925;-70
2022/10/28 04:28:38;;;;;;;;;;;16.40;99.90;;;;;;5030429;28;19971;-69
2022/10/28 04:31:05;;;;;;;;;;;16.40;99.90;;;;;;5042010;28;20004;-69
2022/10/28 04:33:31;;;;;;;;;;;16.30;99.90;;;;;;5048115;28;20435;-69
2022/10/28 04:35:59;;;;;;;;;;;16.30;99.90;;;;;;5032080;28;19925;-69
2022/10/28 04:38:26;;;;;;;;;;;16.30;99.90;;;;;;5038349;28;19924;-69
2022/10/28 04:40:53;;;;;;;;;;;16.30;99.90;;;;;;5052033;28;19931;-70
2022/10/28 04:43:19;;;;;;;;;;;16.20;99.90;;;;;;5052633;28;20015;-69
2022/10/28 04:45:46;;;;;;;;;;;16.20;99.90;;;;;;5043426;28;19932;-69
2022/10/28 04:48:13;;;;;;;;;;;16.30;99.90;;;;;;5042330;28;19971;-69
2022/10/28 04:50:39;;;;;;;;;;;16.30;99.90;;;;;;5049360;28;20343;-69
2022/10/28 04:53:07;;;;;;;;;;;16.20;99.90;;;;;;5052093;28;19925;-70
2022/10/28 04:55:34;;;;;;;;;;;16.20;99.90;;;;;;5050174;28;19933;-69
2022/10/28 04:58:01;;;;;;;;;;;16.10;99.90;;;;;;5051777;28;20016;-70
2022/10/28 05:00:28;;;;;;;;;;;16.10;99.90;;;;;;5046367;28;20292;-69
2022/10/28 05:02:55;;;;;;;;;;;16.10;99.90;;;;;;5051226;28;20008;-69
2022/10/28 05:05:22;;;;;;;;;;;16.10;99.90;;;;;;5037189;28;20406;-70
2022/10/28 05:07:48;;;;;;;;;;;16.10;99.90;;;;;;5032224;28;19925;-69
2022/10/28 05:10:17;;;;;;;;;;;16.10;99.90;;;;;;5031260;28;19952;-69
2022/10/28 05:12:43;;;;;;;;;;;16.10;99.90;;;;;;5041603;28;19928;-69
2022/10/28 05:15:11;;;;;;;;;;;16.10;99.90;;;;;;5049585;28;19925;-68
2022/10/28 05:17:38;;;;;;;;;;;16.10;99.90;;;;;;5040269;28;20307;-69
2022/10/28 05:20:05;;;;;;;;;;;16.10;99.90;;;;;;5044431;28;20311;-69
2022/10/28 05:22:32;;;;;;;;;;;16.10;99.90;;;;;;5033331;28;19935;-70
2022/10/28 05:24:58;;;;;;;;;;;16.10;99.90;;;;;;5043289;28;19931;-70
2022/10/28 05:27:26;;;;;;;;;;;16.10;99.90;;;;;;5032530;28;19968;-70
2022/10/28 05:29:53;;;;;;;;;;;16.00;99.90;;;;;;5037022;28;20014;-70
2022/10/28 05:32:20;;;;;;;;;;;16.00;99.90;;;;;;5026594;28;19939;-70
2022/10/28 05:34:46;;;;;;;;;;;15.90;99.90;;;;;;5027597;28;19929;-70
2022/10/28 05:37:13;;;;;;;;;;;15.90;99.90;;;;;;5034000;28;19933;-71
2022/10/28 05:39:40;;;;;;;;;;;15.80;99.90;;;;;;5037725;28;20338;-71
2022/10/28 05:42:06;;;;;;;;;;;15.80;99.90;;;;;;5041961;28;20345;-71
2022/10/28 05:44:34;;;;;;;;;;;15.70;99.90;;;;;;5036513;28;20695;-69
2022/10/28 05:47:01;;;;;;;;;;;15.60;99.90;;;;;;5034637;28;20017;-71
2022/10/28 05:49:33;;;;;;;;;;;15.50;99.90;;;;;;5031594;28;19944;-70
2022/10/28 05:52:00;;;;;;;;;;;15.40;99.90;;;;;;5032367;28;19998;-70
2022/10/28 05:54:27;;;;;;;;;;;15.30;99.90;;;;;;5031047;28;20000;-69
2022/10/28 05:56:53;;;;;;;;;;;15.30;99.90;;;;;;5030468;28;19925;-70
2022/10/28 05:59:20;;;;;;;;;;;15.30;99.90;;;;;;5035175;28;19987;-73
2022/10/28 06:01:48;;;;;;;;;;;15.30;99.90;;;;;;5032709;28;20011;-73
2022/10/28 06:04:15;;;;;;;;;;;15.30;99.90;;;;;;5033503;28;20358;-71
2022/10/28 06:06:41;;;;;;;;;;;15.20;99.90;;;;;;5034420;28;19925;-72
2022/10/28 06:09:08;;;;;;;;;;;15.30;99.90;;;;;;5034270;28;20020;-71
2022/10/28 06:11:35;;;;;;;;;;;15.30;99.90;;;;;;5036999;28;20043;-70
2022/10/28 06:14:01;;;;;;;;;;;15.30;99.90;;;;;;5033721;28;19925;-70
2022/10/28 06:16:28;;;;;;;;;;;15.30;99.90;;;;;;5035887;28;19925;-70
2022/10/28 06:18:57;;;;;;;;;;;15.30;99.90;;;;;;5054240;28;19944;-74
2022/10/28 06:21:23;;;;;;;;;;;15.20;99.90;;;;;;5049957;28;19925;-73
2022/10/28 06:23:50;;;;;;;;;;;15.20;99.90;;;;;;5036513;28;19932;-70
2022/10/28 06:26:17;;;;;;;;;;;15.10;99.90;;;;;;5039149;28;19971;-70
2022/10/28 06:28:46;;;;;;;;;;;15.10;99.90;;;;;;5031105;28;20024;-71
2022/10/28 06:31:13;;;;;;;;;;;15.00;99.90;;;;;;5038406;28;20012;-70
2022/10/28 06:33:39;;;;;;;;;;;14.90;99.90;;;;;;5035814;28;19925;-70
2022/10/28 06:36:08;;;;;;;;;;;14.90;99.90;;;;;;5037567;28;19925;-70
2022/10/28 06:38:35;;;;;;;;;;;14.90;99.90;;;;;;5038681;28;20451;-71
2022/10/28 06:41:01;;;;;;;;;;;14.90;99.90;;;;;;5039757;28;20379;-70
2022/10/28 06:43:28;;;;;;;;;;;14.90;99.90;;;;;;5036356;28;20336;-71
2022/10/28 06:45:56;;;;;;;;;;;15.00;99.90;;;;;;5033691;28;20428;-70
2022/10/28 06:48:22;;;;;;;;;;;15.10;99.90;;;;;;5036584;28;19925;-70
2022/10/28 06:50:49;;;;;;;;;;;15.30;99.90;;;;;;5032698;28;19935;-70
2022/10/28 06:53:17;;;;;;;;;;;15.70;99.90;;;;;;5033499;28;20370;-70
2022/10/28 06:55:47;;;;;;;;;;;15.90;99.90;;;;;;5043290;28;20501;-70
2022/10/28 06:58:14;;;;;;;;;;;16.10;99.90;;;;;;5034543;28;19925;-70
2022/10/28 07:00:40;;;;;;;;;;;16.30;99.90;;;;;;5042238;28;20011;-70
2022/10/28 07:03:08;;;;;;;;;;;16.40;99.90;;;;;;5044713;28;19925;-70
2022/10/28 07:05:35;;;;;;;;;;;16.60;99.90;;;;;;5046962;28;19925;-70
2022/10/28 07:08:01;;;;;;;;;;;16.70;99.90;;;;;;5033570;28;19925;-70
2022/10/28 07:10:29;;;;;;;;;;;16.90;99.90;;;;;;5042237;28;19925;-70
2022/10/28 07:12:56;;;;;;;;;;;17.00;99.90;;;;;;5034824;28;19932;-70
2022/10/28 07:15:23;;;;;;;;;;;17.10;99.90;;;;;;5032493;28;20004;-71
2022/10/28 07:17:51;;;;;;;;;;;17.10;99.90;;;;;;5033114;28;19925;-71
2022/10/28 07:20:18;;;;;;;;;;;17.20;99.90;;;;;;5035287;28;20031;-70
2022/10/28 07:22:45;;;;;;;;;;;17.30;99.90;;;;;;5038081;28;19971;-70
2022/10/28 07:25:11;;;;;;;;;;;17.40;99.90;;;;;;5037687;28;20032;-70
2022/10/28 07:27:39;;;;;;;;;;;17.50;99.90;;;;;;5037908;28;19945;-70
2022/10/28 07:30:07;;;;;;;;;;;17.50;99.90;;;;;;5036731;28;19924;-72
2022/10/28 07:32:33;;;;;;;;;;;17.60;99.90;;;;;;5031617;28;19955;-71
2022/10/28 07:35:00;;;;;;;;;;;17.70;99.90;;;;;;5035670;28;19933;-71
2022/10/28 07:37:27;;;;;;;;;;;17.70;99.90;;;;;;5031424;28;19972;-71
2022/10/28 07:39:53;;;;;;;;;;;17.80;99.90;;;;;;5029492;28;20268;-70
2022/10/28 07:42:20;;;;;;;;;;;17.90;99.90;;;;;;5030098;28;19933;-70
2022/10/28 07:44:48;;;;;;;;;;;17.90;99.90;;;;;;5038293;28;20032;-70
2022/10/28 07:47:16;;;;;;;;;;;18.00;99.90;;;;;;5030852;28;20011;-70
2022/10/28 07:49:43;;;;;;;;;;;18.10;99.90;;;;;;5035230;28;20083;-70
2022/10/28 07:52:10;;;;;;;;;;;18.20;99.90;;;;;;5032944;28;20372;-71
2022/10/28 07:54:36;;;;;;;;;;;18.40;99.90;;;;;;5033082;28;19933;-71
2022/10/28 07:57:03;;;;;;;;;;;18.60;99.90;;;;;;5034651;28;20307;-71
2022/10/28 07:59:30;;;;;;;;;;;18.80;99.90;;;;;;5031077;28;19924;-70
2022/10/28 08:01:58;;;;;;;;;;;19.10;99.90;;;;;;5038112;28;20356;-69
2022/10/28 08:04:25;;;;;;;;;;;19.40;99.90;;;;;;5043348;28;20307;-71
2022/10/28 08:06:51;;;;;;;;;;;19.50;99.90;;;;;;5038990;28;20015;-70
2022/10/28 08:09:18;;;;;;;;;;;19.60;99.90;;;;;;5043494;28;20032;-70
2022/10/28 08:11:45;;;;;;;;;;;19.60;99.90;;;;;;5035137;28;19925;-71
2022/10/28 08:14:11;;;;;;;;;;;19.50;99.90;;;;;;5048577;28;19960;-70
2022/10/28 08:16:38;;;;;;;;;;;19.40;99.90;;;;;;5042763;28;20447;-70
2022/10/28 08:19:06;;;;;;;;;;;19.30;99.90;;;;;;5031413;28;19931;-70
2022/10/28 08:21:33;;;;;;;;;;;19.20;99.90;;;;;;5035435;28;19925;-70
2022/10/28 08:23:59;;;;;;;;;;;19.10;99.90;;;;;;5036555;28;19925;-71
2022/10/28 08:26:26;;;;;;;;;;;19.10;99.90;;;;;;5036821;28;19935;-71
2022/10/28 08:28:53;;;;;;;;;;;19.00;99.90;;;;;;5032194;28;20012;-71
2022/10/28 08:31:19;;;;;;;;;;;19.00;99.90;;;;;;5032032;28;19932;-70
2022/10/28 08:33:46;;;;;;;;;;;19.20;99.90;;;;;;5037214;28;20023;-70
2022/10/28 08:36:15;;;;;;;;;;;19.50;99.90;;;;;;5040169;28;19925;-70
2022/10/28 08:38:42;;;;;;;;;;;20.10;99.90;;;;;;5047565;28;19924;-70
2022/10/28 08:41:14;;;;;;;;;;;20.40;99.90;;;;;;5034758;28;20007;-71
2022/10/28 08:43:49;;;;;;;;;;;20.30;99.90;;;;;;5033164;28;19940;-71
2022/10/28 08:46:21;;;;;;;;;;;20.00;99.90;;;;;;5034801;28;19943;-70
2022/10/28 08:48:48;;;;;;;;;;;19.70;99.90;;;;;;5037077;28;20007;-70
2022/10/28 08:51:17;;;;;;;;;;;19.50;99.90;;;;;;5027936;28;19931;-71
2022/10/28 08:53:46;;;;;;;;;;;19.30;99.90;;;;;;5027354;28;20726;-70
2022/10/28 08:56:14;;;;;;;;;;;19.50;99.90;;;;;;5033375;28;19925;-70
2022/10/28 08:58:43;;;;;;;;;;;20.30;99.90;;;;;;5026762;28;19925;-70
2022/10/28 09:01:16;;;;;;;;;;;21.10;99.90;;;;;;5034487;28;19981;-70
2022/10/28 09:03:45;;;;;;;;;;;21.70;99.90;;;;;;5032561;28;19928;-70
2022/10/28 09:06:12;;;;;;;;;;;22.90;99.90;;;;;;5031464;28;20371;-71
2022/10/28 09:08:41;;;;;;;;;;;23.30;98.90;;;;;;5035955;28;19929;-70
2022/10/28 09:11:16;;;;;;;;;;;23.50;97.60;;;;;;5029796;28;19932;-71
2022/10/28 09:13:49;;;;;;;;;;;23.60;97.50;;;;;;5036750;28;19925;-71
2022/10/28 09:16:21;;;;;;;;;;;23.10;97.80;;;;;;5035509;28;20016;-70
2022/10/28 09:18:51;;;;;;;;;;;22.30;99.90;;;;;;5049328;28;19931;-71
2022/10/28 09:21:21;;;;;;;;;;;21.80;99.90;;;;;;5043655;28;19925;-70
2022/10/28 09:23:54;;;;;;;;;;;21.30;99.90;;;;;;5033178;28;20004;-71
2022/10/28 09:26:23;;;;;;;;;;;21.10;99.90;;;;;;5034580;28;19972;-71
2022/10/28 09:28:55;;;;;;;;;;;21.00;99.90;;;;;;5026990;28;19948;-71
2022/10/28 09:31:26;;;;;;;;;;;20.90;99.90;;;;;;5040103;28;19925;-75
2022/10/28 09:34:01;;;;;;;;;;;21.00;99.90;;;;;;5040199;28;20273;-74
2022/10/28 09:36:31;;;;;;;;;;;21.00;99.90;;;;;;5042952;28;19933;-74
2022/10/28 09:39:00;;;;;;;;;;;20.90;99.90;;;;;;5038087;28;19967;-71
2022/10/28 09:41:29;;;;;;;;;;;21.00;99.90;;;;;;5041993;28;20004;-72
2022/10/28 09:43:59;;;;;;;;;;;21.00;99.90;;;;;;5035167;28;19972;-72
2022/10/28 09:46:27;;;;;;;;;;;21.00;99.90;;;;;;5040779;28;20016;-71
2022/10/28 09:48:56;;;;;;;;;;;21.00;99.90;;;;;;5034520;28;19970;-71
2022/10/28 09:51:28;;;;;;;;;;;21.10;99.90;;;;;;5033476;28;19960;-71
2022/10/28 09:53:56;;;;;;;;;;;21.10;99.90;;;;;;5034865;28;19932;-71
2022/10/28 09:56:25;;;;;;;;;;;21.20;99.90;;;;;;5043980;28;19931;-71
2022/10/28 09:58:52;;;;;;;;;;;21.30;99.90;;;;;;5055202;28;20016;-71
2022/10/28 10:01:19;;;;;;;;;;;21.30;99.90;;;;;;5054561;28;19925;-72
2022/10/28 10:03:47;;;;;;;;;;;21.30;99.90;;;;;;5054424;28;20012;-71
2022/10/28 10:06:18;;;;;;;;;;;21.30;99.90;;;;;;5055098;28;20330;-71
2022/10/28 10:08:45;;;;;;;;;;;21.30;99.90;;;;;;5055168;28;19925;-71
2022/10/28 10:11:15;;;;;;;;;;;21.40;99.90;;;;;;5054669;28;19932;-69
2022/10/28 10:13:43;;;;;;;;;;;21.40;99.90;;;;;;5054413;28;19931;-69
2022/10/28 10:16:13;;;;;;;;;;;21.50;99.90;;;;;;5054832;28;20019;-69
2022/10/28 10:18:45;;;;;;;;;;;21.60;99.90;;;;;;5052429;28;19960;-69
2022/10/28 10:21:13;;;;;;;;;;;21.70;99.90;;;;;;5054219;28;20024;-69
2022/10/28 10:23:40;;;;;;;;;;;21.80;99.90;;;;;;5053425;28;19925;-69
2022/10/28 10:26:07;;;;;;;;;;;21.80;99.90;;;;;;5054245;28;20040;-71
2022/10/28 10:28:36;;;;;;;;;;;21.80;99.90;;;;;;5047471;28;19931;-69
2022/10/28 10:31:05;;;;;;;;;;;21.90;99.90;;;;;;5034361;28;19931;-69
2022/10/28 10:33:33;;;;;;;;;;;21.90;99.90;;;;;;5034437;28;19932;-70
2022/10/28 10:36:01;;;;;;;;;;;22.00;99.90;;;;;;5034885;28;19932;-69
2022/10/28 10:38:29;;;;;;;;;;;22.10;99.90;;;;;;5041185;28;19937;-69
2022/10/28 10:40:56;;;;;;;;;;;22.20;99.90;;;;;;5054544;28;20016;-69
2022/10/28 10:43:24;;;;;;;;;;;22.30;99.60;;;;;;5053443;28;20020;-69
2022/10/28 10:45:52;;;;;;;;;;;22.40;99.10;;;;;;5049916;28;20016;-69
2022/10/28 10:48:20;;;;;;;;;;;22.30;98.90;;;;;;5033974;28;19947;-69
2022/10/28 10:50:47;;;;;;;;;;;22.40;99.30;;;;;;5034320;28;19925;-69
2022/10/28 10:53:18;;;;;;;;;;;22.30;99.40;;;;;;5033499;28;19925;-69
2022/10/28 10:55:48;;;;;;;;;;;22.40;99.00;;;;;;5033952;28;20455;-69
2022/10/28 10:58:16;;;;;;;;;;;22.50;98.70;;;;;;5033599;28;19925;-69
2022/10/28 11:00:45;;;;;;;;;;;22.40;98.60;;;;;;5036805;28;19955;-69
2022/10/28 11:03:17;;;;;;;;;;;22.30;98.80;;;;;;5053546;28;20972;-70
2022/10/28 11:05:49;;;;;;;;;;;22.30;99.50;;;;;;5050259;28;19932;-70
2022/10/28 11:08:24;;;;;;;;;;;22.20;98.70;;;;;;5033766;28;20343;-70
2022/10/28 11:11:02;;;;;;;;;;;22.20;99.00;;;;;;5033506;28;19931;-70
2022/10/28 11:13:29;;;;;;;;;;;22.20;99.30;;;;;;5033512;28;20013;-70
2022/10/28 11:15:59;;;;;;;;;;;22.20;98.80;;;;;;5033795;28;20331;-71
2022/10/28 11:18:28;;;;;;;;;;;22.20;98.60;;;;;;5033283;28;19929;-71
2022/10/28 11:20:58;;;;;;;;;;;22.20;99.10;;;;;;5032985;28;19936;-71
2022/10/28 11:23:35;;;;;;;;;;;22.20;99.30;;;;;;5033348;28;19925;-71
2022/10/28 11:26:04;;;;;;;;;;;22.20;99.00;;;;;;5034361;28;19975;-71
2022/10/28 11:28:36;;;;;;;;;;;22.30;99.10;;;;;;5033808;28;19925;-71
2022/10/28 11:31:15;;;;;;;;;;;22.30;98.90;;;;;;5033272;28;19925;-70
2022/10/28 11:33:45;;;;;;;;;;;22.30;98.80;;;;;;5047885;28;19931;-71
2022/10/28 11:36:18;;;;;;;;;;;22.50;98.90;;;;;;5049090;28;20296;-71
2022/10/28 11:39:01;;;;;;;;;;;22.50;98.60;;;;;;5033584;28;20020;-71
2022/10/28 11:41:31;;;;;;;;;;;22.60;99.20;;;;;;5033522;28;19925;-70
2022/10/28 11:43:58;;;;;;;;;;;22.70;99.10;;;;;;5032460;28;19944;-71
2022/10/28 11:46:34;;;;;;;;;;;22.60;97.80;;;;;;5033324;28;19931;-71
2022/10/28 11:49:14;;;;;;;;;;;22.50;98.50;;;;;;5032559;28;19935;-70
2022/10/28 11:51:49;;;;;;;;;;;22.40;98.80;;;;;;5033227;28;19957;-71
2022/10/28 11:54:45;;;;;;;;;;;22.40;98.90;;;;;;5032744;28;20075;-70
2022/10/28 11:57:14;;;;;;;;;;;22.30;99.00;;;;;;5033095;28;19932;-71
2022/10/28 11:59:54;;;;;;;;;;;22.20;99.00;;;;;;5040591;28;19951;-70
2022/10/28 12:02:28;;;;;;;;;;;22.10;99.40;;;;;;5052772;28;19925;-71
2022/10/28 12:04:58;;;;;;;;;;;22.10;99.50;;;;;;5045527;28;19925;-71
2022/10/28 12:07:34;;;;;;;;;;;22.00;99.80;;;;;;5032646;28;19925;-71
2022/10/28 12:10:06;;;;;;;;;;;22.00;99.90;;;;;;5032801;28;20376;-71
2022/10/28 12:12:36;;;;;;;;;;;21.90;99.90;;;;;;5032827;28;19925;-71
2022/10/28 12:15:14;;;;;;;;;;;21.90;99.90;;;;;;5031504;28;21871;-71
2022/10/28 12:17:45;;;;;;;;;;;21.90;99.90;;;;;;5032993;28;19975;-71
2022/10/28 12:20:16;;;;;;;;;;;21.90;99.90;;;;;;5032741;28;20386;-71
2022/10/28 12:22:47;;;;;;;;;;;21.90;99.90;;;;;;5032542;28;19926;-71
2022/10/28 12:25:16;;;;;;;;;;;21.80;99.90;;;;;;5032876;28;19925;-71
2022/10/28 12:27:45;;;;;;;;;;;21.80;99.90;;;;;;5033622;28;19947;-71
2022/10/28 12:30:19;;;;;;;;;;;21.80;99.90;;;;;;5032383;28;20342;-71
2022/10/28 12:32:48;;;;;;;;;;;21.80;99.90;;;;;;5032627;28;19936;-70
2022/10/28 12:35:17;;;;;;;;;;;21.90;99.90;;;;;;5032366;28;20053;-71
2022/10/28 12:37:47;;;;;;;;;;;22.00;99.90;;;;;;5032503;28;19933;-68
2022/10/28 12:40:16;;;;;;;;;;;22.10;99.90;;;;;;5032163;28;20400;-69
2022/10/28 12:42:45;;;;;;;;;;;22.10;99.90;;;;;;5046731;28;19924;-71
2022/10/28 12:45:13;;;;;;;;;;;22.20;99.90;;;;;;5052154;28;20406;-70
2022/10/28 12:47:42;;;;;;;;;;;22.20;99.90;;;;;;5051617;28;19924;-71
2022/10/28 12:50:12;;;;;;;;;;;22.10;99.90;;;;;;5049952;28;20379;-71
2022/10/28 12:52:44;;;;;;;;;;;22.10;99.90;;;;;;5052090;28;19925;-71
2022/10/28 12:55:19;;;;;;;;;;;22.10;99.90;;;;;;5052176;28;20963;-71
2022/10/28 12:57:47;;;;;;;;;;;22.10;99.90;;;;;;5045853;28;19987;-70
2022/10/28 13:00:17;;;;;;;;;;;22.10;99.90;;;;;;5031555;28;19932;-70
2022/10/28 13:02:47;;;;;;;;;;;22.20;99.90;;;;;;5032236;28;19925;-70
2022/10/28 13:05:15;;;;;;;;;;;22.30;99.90;;;;;;5046819;28;19976;-71
2022/10/28 13:07:51;;;;;;;;;;;22.40;99.90;;;;;;5051223;28;19973;-70
2022/10/28 13:10:22;;;;;;;;;;;22.50;99.90;;;;;;5051786;28;20283;-67
2022/10/28 13:13:06;;;;;;;;;;;22.50;99.90;;;;;;5045896;28;20281;-69
2022/10/28 13:15:41;;;;;;;;;;;22.60;99.90;;;;;;5051719;28;20253;-69
2022/10/28 13:18:23;;;;;;;;;;;22.70;99.90;;;;;;5051907;28;19933;-69
2022/10/28 13:20:58;;;;;;;;;;;22.50;99.90;;;;;;5051623;28;20273;-72
2022/10/28 13:23:30;;;;;;;;;;;22.40;99.90;;;;;;5051639;28;19928;-69
2022/10/28 13:26:03;;;;;;;;;;;22.20;99.90;;;;;;5035092;28;20091;-70
2022/10/28 13:28:31;;;;;;;;;;;22.10;99.90;;;;;;5027235;28;19933;-71
2022/10/28 13:30:59;;;;;;;;;;;22.10;99.90;;;;;;5025669;28;19934;-71
2022/10/28 13:33:26;;;;;;;;;;;22.20;99.90;;;;;;5025483;28;19925;-69
2022/10/28 13:35:54;;;;;;;;;;;22.30;99.90;;;;;;5027971;28;20056;-71
2022/10/28 13:38:23;;;;;;;;;;;22.30;99.90;;;;;;5026716;28;20422;-73
2022/10/28 13:41:11;;;;;;;;;;;22.20;99.90;;;;;;5028715;28;19931;-65
2022/10/28 13:43:58;;;;;;;;;;;22.10;99.90;;;;;;5026833;28;19925;-65
2022/10/28 13:46:42;;;;;;;;;;;22.20;99.90;;;;;;5028325;28;19995;-65
2022/10/28 13:49:23;;;;;;;;;;;22.30;99.90;;;;;;5031516;28;20012;-66
2022/10/28 13:51:50;;;;;;;;;;;22.30;99.90;;;;;;5033610;28;20631;-66
2022/10/28 13:54:27;;;;;;;;;;;22.30;99.90;;;;;;5039125;28;19948;-65
2022/10/28 13:57:00;;;;;;;;;;;22.30;99.90;;;;;;5029476;28;19936;-66
2022/10/28 13:59:29;;;;;;;;;;;22.30;99.90;;;;;;5030140;28;20327;-71
2022/10/28 14:02:01;;;;;;;;;;;22.20;99.90;;;;;;5035041;28;20063;-72
2022/10/28 14:04:30;;;;;;;;;;;22.10;99.90;;;;;;5034750;28;19929;-71
2022/10/28 14:07:20;;;;;;;;;;;22.10;99.90;;;;;;5036412;28;19928;-71
2022/10/28 14:09:51;;;;;;;;;;;22.00;99.90;;;;;;5025406;28;19925;-72
2022/10/28 14:12:39;;;;;;;;;;;21.90;99.90;;;;;;5029843;28;19929;-71
2022/10/28 14:15:19;;;;;;;;;;;21.90;99.90;;;;;;5028302;28;19925;-72
2022/10/28 14:17:47;;;;;;;;;;;21.90;99.90;;;;;;5031770;28;19925;-72
2022/10/28 14:20:26;;;;;;;;;;;21.80;99.90;;;;;;5029542;28;20252;-75
2022/10/28 14:22:53;;;;;;;;;;;21.80;99.90;;;;;;5030586;28;19925;-72
2022/10/28 14:25:38;;;;;;;;;;;21.80;99.90;;;;;;5032399;28;19929;-70
2022/10/28 14:28:35;;;;;;;;;;;21.80;99.90;;;;;;5032463;28;20363;-73